Time;durP1;ratioP1;P1;durP2;ratioP2;P2;SDS_P1;SDS_P2;PMS_P1;PMS_P2;Temp;Humidity;BMP_temperature;BMP_pressure;BME280_temperature;BME280_humidity;BME280_pressure;Samples;Min_cycle;Max_cycle;Signal;HPM_P1;HPM_P2
2023/05/30 00:00:37;;;;;;;5.40;2.80;;;12.40;68.50;;;;;;2050452;28;20254;-72
2023/05/30 00:01:38;;;;;;;6.33;2.60;;;12.30;68.10;;;;;;2060842;28;20226;-72
2023/05/30 00:02:42;;;;;;;4.63;3.00;;;12.40;68.60;;;;;;2053133;28;21113;-72
2023/05/30 00:03:44;;;;;;;4.28;2.78;;;12.40;68.50;;;;;;2046521;28;20248;-72
2023/05/30 00:04:46;;;;;;;5.82;2.60;;;12.40;68.90;;;;;;2054069;28;20235;-72
2023/05/30 00:05:48;;;;;;;4.55;2.65;;;12.30;68.70;;;;;;2054666;28;20239;-72
2023/05/30 00:06:49;;;;;;;5.90;2.67;;;12.30;69.10;;;;;;2052636;28;20318;-72
2023/05/30 00:07:51;;;;;;;4.85;2.83;;;12.30;69.10;;;;;;2055896;28;21033;-72
2023/05/30 00:08:52;;;;;;;4.35;3.10;;;12.30;69.10;;;;;;2058550;28;20283;-72
2023/05/30 00:09:53;;;;;;;4.50;2.40;;;12.20;69.10;;;;;;2063967;28;20222;-72
2023/05/30 00:10:54;;;;;;;5.83;3.03;;;12.30;69.30;;;;;;2063402;28;20268;-71
2023/05/30 00:11:56;;;;;;;4.07;2.55;;;12.20;70.00;;;;;;2063464;28;20332;-72
2023/05/30 00:12:57;;;;;;;5.07;2.60;;;12.10;69.70;;;;;;2063048;28;20729;-72
2023/05/30 00:13:58;;;;;;;4.13;2.57;;;12.20;69.60;;;;;;2054678;28;20234;-72
2023/05/30 00:14:59;;;;;;;3.80;2.40;;;12.20;69.60;;;;;;2051279;28;20254;-72
2023/05/30 00:16:01;;;;;;;4.10;2.78;;;12.10;70.10;;;;;;2053195;28;20230;-74
2023/05/30 00:17:05;;;;;;;5.07;2.70;;;12.10;70.00;;;;;;2044445;28;20198;-72
2023/05/30 00:18:05;;;;;;;2.90;2.45;;;12.10;70.80;;;;;;2052069;28;20196;-72
2023/05/30 00:19:07;;;;;;;4.37;2.70;;;12.00;70.80;;;;;;2057514;28;20645;-72
2023/05/30 00:20:08;;;;;;;3.92;2.60;;;12.00;70.80;;;;;;2058924;28;20237;-72
2023/05/30 00:21:12;;;;;;;5.60;2.70;;;12.00;70.70;;;;;;2051079;28;20207;-72
2023/05/30 00:22:12;;;;;;;4.30;2.75;;;12.00;71.30;;;;;;2056957;28;20189;-72
2023/05/30 00:23:14;;;;;;;3.07;2.40;;;12.00;70.60;;;;;;2052194;28;20742;-72
2023/05/30 00:24:15;;;;;;;5.72;2.90;;;11.90;70.90;;;;;;2050791;28;20183;-72
2023/05/30 00:25:20;;;;;;;4.27;2.87;;;11.80;71.10;;;;;;2053540;28;20194;-72
2023/05/30 00:26:21;;;;;;;3.45;2.60;;;12.00;71.00;;;;;;2061587;28;20304;-72
2023/05/30 00:27:22;;;;;;;3.40;2.40;;;12.00;71.20;;;;;;2053885;28;20721;-71
2023/05/30 00:28:24;;;;;;;3.30;2.70;;;11.90;71.40;;;;;;2046678;28;20241;-72
2023/05/30 00:29:25;;;;;;;3.25;2.60;;;12.00;71.60;;;;;;2054153;28;20666;-74
2023/05/30 00:30:26;;;;;;;4.90;2.38;;;12.00;71.30;;;;;;2062539;28;20284;-72
2023/05/30 00:31:29;;;;;;;5.60;3.20;;;11.80;72.30;;;;;;2051399;28;20245;-71
2023/05/30 00:32:30;;;;;;;3.10;2.30;;;11.80;72.80;;;;;;2062650;28;20226;-72
2023/05/30 00:33:31;;;;;;;4.13;2.60;;;11.70;72.60;;;;;;2062809;28;20262;-72
2023/05/30 00:34:32;;;;;;;4.03;2.70;;;11.70;73.40;;;;;;2053199;28;20277;-72
2023/05/30 00:35:32;;;;;;;6.45;2.65;;;11.80;72.60;;;;;;2057293;28;20709;-72
2023/05/30 00:36:34;;;;;;;3.13;2.23;;;11.70;73.00;;;;;;2053836;28;20226;-72
2023/05/30 00:37:35;;;;;;;3.60;2.53;;;11.80;73.50;;;;;;2050589;28;20227;-72
2023/05/30 00:38:36;;;;;;;3.57;2.57;;;11.80;73.60;;;;;;2060273;28;20229;-72
2023/05/30 00:39:37;;;;;;;6.47;2.53;;;11.70;73.30;;;;;;2060250;28;21001;-72
2023/05/30 00:40:38;;;;;;;5.00;2.53;;;11.70;73.50;;;;;;2054804;28;20329;-72
2023/05/30 00:41:39;;;;;;;4.83;2.77;;;11.70;73.70;;;;;;2061889;28;20287;-72
2023/05/30 00:42:39;;;;;;;7.17;2.40;;;11.80;73.50;;;;;;2058841;28;20233;-72
2023/05/30 00:43:40;;;;;;;4.67;2.63;;;11.70;73.50;;;;;;2051700;28;20254;-72
2023/05/30 00:44:41;;;;;;;5.67;2.63;;;11.80;74.00;;;;;;2038591;28;20263;-72
2023/05/30 00:45:43;;;;;;;3.08;2.30;;;11.70;73.60;;;;;;2052619;28;20234;-72
2023/05/30 00:46:45;;;;;;;4.90;2.60;;;11.70;74.50;;;;;;2058878;28;20800;-72
2023/05/30 00:47:47;;;;;;;2.72;2.25;;;11.70;74.20;;;;;;2059351;28;20234;-72
2023/05/30 00:48:48;;;;;;;4.03;2.95;;;11.70;74.10;;;;;;2062106;28;20222;-72
2023/05/30 00:49:49;;;;;;;3.97;2.90;;;11.80;73.90;;;;;;2054974;28;20238;-73
2023/05/30 00:50:51;;;;;;;3.67;2.85;;;11.80;74.20;;;;;;2059487;28;20242;-72
2023/05/30 00:51:52;;;;;;;3.13;2.10;;;11.80;73.80;;;;;;2066046;28;20245;-72
2023/05/30 00:52:54;;;;;;;3.47;2.45;;;11.80;73.50;;;;;;2060697;28;20223;-72
2023/05/30 00:53:56;;;;;;;4.47;2.58;;;11.80;73.80;;;;;;2052876;28;20755;-72
2023/05/30 00:55:02;;;;;;;3.95;2.95;;;11.80;75.00;;;;;;2052051;28;20239;-72
2023/05/30 00:56:03;;;;;;;4.20;2.58;;;11.80;73.70;;;;;;2053879;28;20288;-72
2023/05/30 00:57:07;;;;;;;4.47;3.05;;;11.80;73.70;;;;;;2059974;28;20256;-72
2023/05/30 00:58:08;;;;;;;3.75;2.30;;;11.80;73.80;;;;;;2042700;28;20273;-72
2023/05/30 00:59:09;;;;;;;3.55;2.38;;;11.80;73.90;;;;;;2046965;28;20622;-72
2023/05/30 01:00:12;;;;;;;4.60;2.90;;;11.80;74.60;;;;;;2054193;28;20187;-72
2023/05/30 01:01:14;;;;;;;5.18;2.70;;;11.70;74.90;;;;;;2058926;28;20187;-72
2023/05/30 01:02:16;;;;;;;5.43;2.45;;;11.50;75.60;;;;;;2051604;28;20195;-72
2023/05/30 01:03:22;;;;;;;3.55;2.70;;;11.40;76.20;;;;;;2062515;28;20193;-72
2023/05/30 01:04:23;;;;;;;3.50;2.58;;;11.40;76.30;;;;;;2054350;28;20230;-72
2023/05/30 01:05:29;;;;;;;4.97;2.95;;;11.60;76.50;;;;;;2051961;28;20728;-72
2023/05/30 01:06:30;;;;;;;3.97;2.95;;;11.60;76.50;;;;;;2059671;28;20226;-72
2023/05/30 01:07:33;;;;;;;4.23;2.50;;;11.50;76.60;;;;;;2058014;28;20697;-72
2023/05/30 01:08:33;;;;;;;4.95;2.70;;;11.60;76.40;;;;;;2059460;28;20301;-72
2023/05/30 01:09:34;;;;;;;5.07;2.30;;;11.60;76.50;;;;;;2051731;28;20339;-72
2023/05/30 01:10:36;;;;;;;7.00;2.80;;;11.50;76.80;;;;;;2059864;28;20237;-72
2023/05/30 01:11:57;;;;;;;5.45;2.13;;;11.50;76.60;;;;;;2058472;28;20599;-72
2023/05/30 01:13:19;;;;;;;3.85;2.72;;;11.60;76.50;;;;;;2057449;28;20222;-72
2023/05/30 01:14:37;;;;;;;4.63;2.42;;;11.50;76.30;;;;;;2052074;28;20840;-72
2023/05/30 01:15:49;;;;;;;2.90;2.50;;;11.60;76.30;;;;;;2052931;28;20233;-72
2023/05/30 01:16:58;;;;;;;4.80;2.58;;;11.60;76.30;;;;;;2051590;28;20629;-72
2023/05/30 01:18:17;;;;;;;4.25;2.35;;;11.60;76.70;;;;;;2050446;28;20230;-72
2023/05/30 01:19:46;;;;;;;3.40;2.55;;;11.60;77.30;;;;;;2048305;28;20215;-73
2023/05/30 01:21:01;;;;;;;3.13;2.33;;;11.50;77.30;;;;;;2057787;28;20222;-72
2023/05/30 01:22:32;;;;;;;5.95;2.80;;;11.50;76.60;;;;;;2063842;28;20300;-73
2023/05/30 01:24:05;;;;;;;4.40;2.67;;;11.50;77.90;;;;;;2059298;28;20739;-72
2023/05/30 01:25:45;;;;;;;4.55;2.50;;;11.50;78.00;;;;;;2055162;28;20293;-71
2023/05/30 01:27:38;;;;;;;3.72;2.50;;;11.40;77.90;;;;;;2060438;28;20233;-71
2023/05/30 01:28:40;;;;;;;3.55;2.53;;;11.40;77.90;;;;;;2054577;28;20229;-72
2023/05/30 01:29:42;;;;;;;4.32;2.90;;;11.40;78.50;;;;;;2054428;28;20712;-72
2023/05/30 01:30:46;;;;;;;4.93;2.85;;;11.40;78.20;;;;;;2060325;28;20243;-72
2023/05/30 01:31:49;;;;;;;4.18;2.83;;;11.40;78.50;;;;;;2060695;28;20238;-72
2023/05/30 01:32:50;;;;;;;3.38;2.67;;;11.40;78.10;;;;;;2039169;29;20256;-72
2023/05/30 01:33:52;;;;;;;4.25;2.60;;;11.30;78.10;;;;;;2039973;28;20238;-72
2023/05/30 01:34:57;;;;;;;4.70;2.70;;;11.30;77.80;;;;;;2053214;28;20362;-72
2023/05/30 01:35:58;;;;;;;3.35;2.60;;;11.30;77.80;;;;;;2060580;28;20309;-72
2023/05/30 01:36:58;;;;;;;2.87;2.40;;;11.40;77.50;;;;;;2058381;28;20237;-72
2023/05/30 01:38:00;;;;;;;5.17;2.70;;;11.40;77.40;;;;;;2053659;28;20929;-72
2023/05/30 01:39:00;;;;;;;3.33;2.50;;;11.30;77.20;;;;;;2060472;28;20217;-72
2023/05/30 01:40:02;;;;;;;4.80;2.80;;;11.30;77.30;;;;;;2060738;28;20186;-72
2023/05/30 01:41:25;;;;;;;3.33;2.45;;;11.50;78.10;;;;;;2063789;28;20184;-71
2023/05/30 01:42:28;;;;;;;4.95;2.63;;;11.30;78.10;;;;;;2060304;28;20604;-71
2023/05/30 01:44:01;;;;;;;4.43;2.75;;;11.50;77.20;;;;;;2048310;28;20242;-71
2023/05/30 01:45:12;;;;;;;4.38;2.95;;;11.50;77.00;;;;;;2044259;28;21078;-72
2023/05/30 01:46:32;;;;;;;4.45;2.60;;;11.50;77.60;;;;;;2056604;28;20187;-72
2023/05/30 01:47:58;;;;;;;5.47;3.00;;;11.60;77.30;;;;;;2063666;28;20320;-72
2023/05/30 01:49:23;;;;;;;5.85;2.67;;;11.70;76.40;;;;;;2055803;28;20291;-72
2023/05/30 01:50:32;;;;;;;4.05;2.53;;;11.70;76.40;;;;;;2048232;28;20238;-72
2023/05/30 01:51:51;;;;;;;4.70;2.95;;;11.80;75.90;;;;;;2050674;28;20235;-71
2023/05/30 01:52:59;;;;;;;3.75;2.53;;;11.80;75.20;;;;;;2048298;28;20226;-72
2023/05/30 01:54:04;;;;;;;4.30;3.00;;;11.70;75.50;;;;;;2038786;28;20306;-71
2023/05/30 01:55:09;;;;;;;6.68;3.08;;;11.70;76.70;;;;;;2052959;28;20194;-72
2023/05/30 01:56:14;;;;;;;4.57;2.50;;;11.50;77.20;;;;;;2063303;28;20182;-72
2023/05/30 01:57:16;;;;;;;4.95;2.88;;;11.60;76.40;;;;;;2068178;28;20239;-72
2023/05/30 01:58:19;;;;;;;4.28;2.70;;;11.60;77.50;;;;;;2063432;28;20285;-71
2023/05/30 01:59:23;;;;;;;4.43;2.75;;;11.50;76.50;;;;;;2051360;28;20231;-71
2023/05/30 02:00:26;;;;;;;5.82;2.70;;;11.60;76.80;;;;;;2060027;28;20222;-72
2023/05/30 02:01:29;;;;;;;6.50;3.20;;;11.50;77.10;;;;;;2067187;28;20252;-70
2023/05/30 02:02:30;;;;;;;3.60;2.45;;;11.60;78.00;;;;;;2057315;28;20328;-71
2023/05/30 02:03:31;;;;;;;4.07;2.40;;;11.60;78.00;;;;;;2060498;28;20230;-71
2023/05/30 02:04:33;;;;;;;4.50;2.90;;;11.70;78.90;;;;;;2067492;28;20676;-72
2023/05/30 02:05:33;;;;;;;4.57;2.90;;;11.70;77.10;;;;;;2058207;28;20238;-72
2023/05/30 02:06:35;;;;;;;4.33;2.60;;;11.70;76.80;;;;;;2070101;28;20268;-72
2023/05/30 02:07:35;;;;;;;4.00;2.78;;;11.70;78.10;;;;;;2066196;28;20530;-71
2023/05/30 02:08:36;;;;;;;4.47;2.73;;;11.70;76.90;;;;;;2060873;28;20230;-72
2023/05/30 02:09:40;;;;;;;6.57;2.87;;;11.70;76.40;;;;;;2055571;28;20694;-72
2023/05/30 02:10:41;;;;;;;4.70;3.05;;;11.80;76.30;;;;;;2053148;28;20231;-72
2023/05/30 02:11:42;;;;;;;4.67;2.80;;;12.00;76.30;;;;;;2063315;28;20592;-72
2023/05/30 02:12:43;;;;;;;3.75;2.58;;;11.80;76.20;;;;;;2056171;28;20221;-72
2023/05/30 02:13:46;;;;;;;6.03;2.80;;;11.90;76.10;;;;;;2055323;28;20310;-72
2023/05/30 02:14:47;;;;;;;6.25;2.72;;;11.90;76.30;;;;;;2059643;28;20230;-72
2023/05/30 02:15:54;;;;;;;4.33;2.80;;;11.80;76.30;;;;;;2059209;28;20247;-74
2023/05/30 02:16:59;;;;;;;3.67;2.20;;;11.80;76.30;;;;;;2049781;28;21055;-72
2023/05/30 02:17:59;;;;;;;4.25;2.70;;;11.60;77.00;;;;;;2055126;28;20242;-73
2023/05/30 02:19:00;;;;;;;4.87;2.57;;;11.70;77.20;;;;;;2063619;28;20281;-73
2023/05/30 02:20:01;;;;;;;4.90;2.70;;;11.70;77.90;;;;;;2067296;28;20583;-72
2023/05/30 02:21:02;;;;;;;5.28;2.60;;;11.70;78.10;;;;;;2059447;28;20211;-72
2023/05/30 02:22:04;;;;;;;4.73;2.80;;;11.60;77.60;;;;;;2055195;28;20187;-72
2023/05/30 02:23:05;;;;;;;4.78;2.88;;;11.60;77.90;;;;;;2060396;28;20183;-71
2023/05/30 02:24:06;;;;;;;4.90;3.07;;;11.50;77.90;;;;;;2058903;28;20650;-73
2023/05/30 02:25:09;;;;;;;5.38;3.15;;;11.50;78.10;;;;;;2064045;28;20189;-72
2023/05/30 02:26:10;;;;;;;4.05;2.83;;;11.50;79.40;;;;;;2064019;28;20185;-72
2023/05/30 02:27:11;;;;;;;4.87;2.83;;;11.40;79.10;;;;;;2066956;28;20288;-72
2023/05/30 02:28:11;;;;;;;4.90;2.80;;;11.50;79.10;;;;;;2057481;28;20216;-71
2023/05/30 02:29:13;;;;;;;5.80;3.20;;;11.40;79.10;;;;;;2056069;28;20655;-71
2023/05/30 02:30:14;;;;;;;4.40;2.88;;;11.50;78.80;;;;;;2070236;28;20193;-72
2023/05/30 02:31:15;;;;;;;3.60;2.57;;;11.50;80.00;;;;;;2061365;28;20309;-71
2023/05/30 02:32:15;;;;;;;6.53;3.17;;;11.50;79.60;;;;;;2057078;28;20653;-72
2023/05/30 02:33:16;;;;;;;5.73;3.30;;;11.40;79.80;;;;;;2062358;28;20676;-71
2023/05/30 02:34:18;;;;;;;4.23;2.90;;;11.40;79.90;;;;;;2062208;28;20206;-71
2023/05/30 02:35:19;;;;;;;4.53;3.00;;;11.40;80.20;;;;;;2063270;28;20197;-72
2023/05/30 02:36:20;;;;;;;4.97;3.05;;;11.50;80.20;;;;;;2046018;28;20239;-72
2023/05/30 02:37:21;;;;;;;4.17;2.30;;;11.50;80.00;;;;;;2046927;28;20721;-72
2023/05/30 02:38:25;;;;;;;5.38;2.95;;;11.50;80.10;;;;;;2060493;28;20245;-72
2023/05/30 02:39:26;;;;;;;6.45;3.13;;;11.40;80.20;;;;;;2061098;28;20233;-72
2023/05/30 02:40:27;;;;;;;4.13;2.90;;;11.40;81.40;;;;;;2059866;28;20241;-70
2023/05/30 02:41:28;;;;;;;4.25;2.88;;;11.40;80.40;;;;;;2060328;28;20266;-71
2023/05/30 02:42:30;;;;;;;4.37;2.50;;;11.40;80.30;;;;;;2060016;28;20241;-71
2023/05/30 02:43:33;;;;;;;3.53;2.35;;;11.40;80.80;;;;;;2047643;28;20711;-71
2023/05/30 02:44:33;;;;;;;4.50;2.78;;;11.40;81.40;;;;;;2046834;28;20326;-72
2023/05/30 02:45:34;;;;;;;3.40;2.77;;;11.40;81.20;;;;;;2059696;28;20320;-72
2023/05/30 02:46:35;;;;;;;4.93;3.08;;;11.50;80.90;;;;;;2059597;28;20240;-71
2023/05/30 02:47:36;;;;;;;4.20;3.33;;;11.50;81.30;;;;;;2067481;28;20676;-72
2023/05/30 02:48:37;;;;;;;3.87;2.60;;;11.40;81.10;;;;;;2061574;28;20226;-72
2023/05/30 02:49:37;;;;;;;4.57;3.03;;;11.20;80.90;;;;;;2062295;28;20738;-71
2023/05/30 02:50:38;;;;;;;4.60;3.03;;;11.20;81.90;;;;;;2060003;28;20230;-71
2023/05/30 02:51:41;;;;;;;4.80;2.67;;;11.20;82.60;;;;;;2058630;28;20320;-71
2023/05/30 02:52:42;;;;;;;5.43;2.58;;;11.10;83.20;;;;;;2061443;28;20229;-72
2023/05/30 02:53:43;;;;;;;4.37;2.80;;;11.00;83.60;;;;;;2052877;28;20269;-72
2023/05/30 02:54:44;;;;;;;6.20;3.40;;;11.10;83.50;;;;;;2060701;28;20234;-72
2023/05/30 02:55:45;;;;;;;4.47;2.70;;;11.20;82.90;;;;;;2060972;28;20225;-72
2023/05/30 02:56:45;;;;;;;3.47;2.87;;;11.10;83.90;;;;;;2059789;28;20225;-72
2023/05/30 02:57:46;;;;;;;5.00;2.77;;;11.30;83.50;;;;;;2061587;28;20230;-72
2023/05/30 02:58:47;;;;;;;4.27;3.17;;;11.20;82.70;;;;;;2062889;28;20330;-72
2023/05/30 02:59:48;;;;;;;4.37;2.50;;;11.20;82.50;;;;;;2051492;28;20285;-71
2023/05/30 03:00:49;;;;;;;4.43;2.80;;;11.30;82.30;;;;;;2046427;28;20221;-72
2023/05/30 03:01:50;;;;;;;5.10;2.92;;;11.30;82.10;;;;;;2044009;28;20701;-71
2023/05/30 03:02:51;;;;;;;4.28;3.10;;;11.30;81.90;;;;;;2057817;28;20230;-71
2023/05/30 03:03:52;;;;;;;4.03;3.13;;;11.40;81.70;;;;;;2067811;28;20300;-72
2023/05/30 03:04:53;;;;;;;6.73;3.27;;;11.40;81.10;;;;;;2058502;28;20775;-72
2023/05/30 03:05:57;;;;;;;4.37;2.90;;;11.40;81.60;;;;;;2044454;28;20219;-72
2023/05/30 03:06:59;;;;;;;4.28;2.95;;;11.40;83.30;;;;;;2044663;28;20224;-72
2023/05/30 03:07:59;;;;;;;7.15;3.15;;;11.30;81.90;;;;;;2061055;28;20291;-73
2023/05/30 03:09:00;;;;;;;5.03;3.43;;;11.30;82.00;;;;;;2051528;28;20195;-74
2023/05/30 03:10:03;;;;;;;6.57;3.20;;;11.40;81.90;;;;;;2053106;28;20576;-73
2023/05/30 03:11:04;;;;;;;4.55;3.30;;;11.40;82.00;;;;;;2059499;28;20194;-71
2023/05/30 03:12:05;;;;;;;4.07;2.90;;;11.40;82.10;;;;;;2049148;28;20187;-71
2023/05/30 03:13:06;;;;;;;5.65;2.78;;;11.40;82.70;;;;;;2045543;28;20188;-71
2023/05/30 03:14:06;;;;;;;5.70;3.00;;;11.20;82.70;;;;;;2053767;28;20269;-72
2023/05/30 03:15:09;;;;;;;4.50;2.70;;;11.30;82.60;;;;;;2056192;28;20373;-72
2023/05/30 03:16:10;;;;;;;3.83;3.00;;;11.30;82.50;;;;;;2069350;28;20198;-71
2023/05/30 03:17:11;;;;;;;6.65;3.00;;;11.20;82.00;;;;;;2059901;28;20939;-71
2023/05/30 03:18:11;;;;;;;4.50;2.70;;;11.20;83.60;;;;;;2054323;28;20213;-72
2023/05/30 03:19:12;;;;;;;2.90;2.57;;;11.20;82.70;;;;;;2055261;28;20207;-72
2023/05/30 03:20:13;;;;;;;6.20;3.00;;;11.30;82.40;;;;;;2063390;28;20189;-72
2023/05/30 03:21:15;;;;;;;4.97;2.97;;;11.30;82.60;;;;;;2044333;28;20191;-71
2023/05/30 03:22:16;;;;;;;4.72;3.00;;;11.20;83.00;;;;;;2051669;28;20194;-71
2023/05/30 03:23:16;;;;;;;6.10;2.67;;;11.20;85.10;;;;;;2049826;28;20194;-71
2023/05/30 03:24:18;;;;;;;5.13;2.93;;;11.20;83.90;;;;;;2054702;28;20198;-71
2023/05/30 03:25:18;;;;;;;5.05;2.80;;;11.20;84.00;;;;;;2054370;28;20179;-70
2023/05/30 03:26:19;;;;;;;4.27;2.90;;;11.20;83.50;;;;;;2061094;28;20221;-71
2023/05/30 03:27:20;;;;;;;8.30;3.57;;;11.20;83.60;;;;;;2060892;28;20315;-72
2023/05/30 03:28:21;;;;;;;4.20;3.10;;;11.20;83.30;;;;;;2060993;28;20262;-71
2023/05/30 03:29:22;;;;;;;4.38;3.38;;;11.20;83.40;;;;;;2054860;28;20272;-72
2023/05/30 03:30:26;;;;;;;4.40;3.10;;;11.20;83.40;;;;;;2055498;28;20267;-72
2023/05/30 03:31:29;;;;;;;4.93;3.20;;;11.20;83.50;;;;;;2061384;28;20229;-70
2023/05/30 03:32:29;;;;;;;5.63;3.10;;;11.10;83.10;;;;;;2053807;28;20241;-71
2023/05/30 03:33:30;;;;;;;5.07;3.23;;;11.10;83.60;;;;;;2062546;28;20320;-71
2023/05/30 03:34:31;;;;;;;7.07;3.03;;;11.10;83.50;;;;;;2062207;28;20229;-72
2023/05/30 03:35:32;;;;;;;6.03;3.10;;;11.10;84.10;;;;;;2060305;28;20240;-72
2023/05/30 03:36:33;;;;;;;4.00;2.83;;;11.10;84.30;;;;;;2062753;28;20225;-72
2023/05/30 03:37:34;;;;;;;5.82;3.20;;;11.10;84.30;;;;;;2059523;28;20237;-72
2023/05/30 03:38:36;;;;;;;4.33;2.50;;;11.00;84.10;;;;;;2057836;28;20317;-71
2023/05/30 03:39:37;;;;;;;4.13;2.88;;;11.10;84.50;;;;;;2058985;28;20765;-72
2023/05/30 03:40:38;;;;;;;6.25;2.92;;;11.00;84.40;;;;;;2054195;28;20742;-73
2023/05/30 03:41:39;;;;;;;6.23;3.20;;;11.00;84.80;;;;;;2047152;28;20373;-72
2023/05/30 03:42:40;;;;;;;4.15;2.60;;;11.00;84.90;;;;;;2055273;28;20762;-71
2023/05/30 03:43:41;;;;;;;4.38;2.88;;;11.00;85.10;;;;;;2063226;28;20311;-72
2023/05/30 03:44:42;;;;;;;6.40;3.40;;;11.00;84.80;;;;;;2058895;28;20239;-72
2023/05/30 03:45:43;;;;;;;8.20;2.73;;;11.00;84.70;;;;;;2060268;28;20634;-71
2023/05/30 03:46:44;;;;;;;4.72;3.22;;;11.00;85.10;;;;;;2049365;28;20712;-72
2023/05/30 03:47:45;;;;;;;4.40;3.10;;;11.00;85.30;;;;;;2051089;28;20227;-72
2023/05/30 03:48:46;;;;;;;3.47;2.93;;;11.00;85.30;;;;;;2056332;28;20629;-72
2023/05/30 03:49:47;;;;;;;6.00;2.92;;;10.90;85.40;;;;;;2056538;28;22288;-72
2023/05/30 03:50:47;;;;;;;6.17;3.10;;;10.90;85.40;;;;;;2048609;28;20268;-73
2023/05/30 03:51:48;;;;;;;6.93;3.13;;;11.00;85.60;;;;;;2062507;28;20230;-72
2023/05/30 03:52:49;;;;;;;4.33;3.00;;;11.00;85.20;;;;;;2063068;28;20446;-72
2023/05/30 03:53:50;;;;;;;5.00;2.83;;;10.80;86.10;;;;;;2062964;28;20264;-71
2023/05/30 03:54:52;;;;;;;3.85;3.35;;;10.70;86.20;;;;;;2056485;28;20658;-72
2023/05/30 03:55:53;;;;;;;5.60;3.25;;;10.80;86.40;;;;;;2051842;28;20222;-72
2023/05/30 03:56:53;;;;;;;4.90;3.10;;;10.90;86.70;;;;;;2054512;28;20232;-72
2023/05/30 03:57:54;;;;;;;4.33;2.97;;;10.90;87.00;;;;;;2056500;28;20269;-74
2023/05/30 03:58:55;;;;;;;5.13;3.27;;;11.00;86.50;;;;;;2062335;28;20224;-72
2023/05/30 03:59:55;;;;;;;3.73;2.73;;;11.00;86.20;;;;;;2051612;28;20725;-72
2023/05/30 04:00:57;;;;;;;4.93;2.93;;;11.10;86.00;;;;;;2062447;28;20226;-71
2023/05/30 04:01:58;;;;;;;5.85;3.20;;;11.10;86.00;;;;;;2060230;28;20217;-72
2023/05/30 04:03:00;;;;;;;4.50;2.73;;;11.00;85.70;;;;;;2054007;28;20234;-72
2023/05/30 04:04:01;;;;;;;4.85;2.97;;;11.10;86.00;;;;;;2054191;28;20262;-71
2023/05/30 04:05:01;;;;;;;4.90;3.13;;;11.00;86.00;;;;;;2059239;28;20638;-72
2023/05/30 04:06:05;;;;;;;5.95;3.30;;;11.10;86.10;;;;;;2062427;28;20205;-72
2023/05/30 04:07:08;;;;;;;4.88;3.30;;;11.10;85.80;;;;;;2055933;28;20218;-74
2023/05/30 04:08:09;;;;;;;4.13;3.15;;;11.10;85.90;;;;;;2055981;28;20254;-71
2023/05/30 04:09:09;;;;;;;5.30;3.00;;;11.20;85.70;;;;;;2055776;28;20641;-71
2023/05/30 04:10:10;;;;;;;4.97;2.93;;;11.20;85.60;;;;;;2053515;28;20194;-72
2023/05/30 04:11:11;;;;;;;4.65;3.10;;;11.20;85.60;;;;;;2046914;28;20261;-73
2023/05/30 04:12:12;;;;;;;5.07;3.20;;;11.20;86.20;;;;;;2059330;28;20228;-74
2023/05/30 04:13:13;;;;;;;5.50;3.00;;;11.30;85.70;;;;;;2058902;28;20194;-72
2023/05/30 04:14:14;;;;;;;5.73;2.87;;;11.30;86.00;;;;;;2054643;28;20298;-74
2023/05/30 04:15:15;;;;;;;7.00;3.17;;;11.40;86.00;;;;;;2060847;28;20205;-71
2023/05/30 04:16:16;;;;;;;3.60;2.60;;;11.30;85.50;;;;;;2058270;28;20284;-71
2023/05/30 04:17:16;;;;;;;4.87;2.97;;;11.30;85.00;;;;;;2062124;28;20221;-71
2023/05/30 04:18:17;;;;;;;6.23;2.93;;;11.30;84.70;;;;;;2062585;28;20296;-72
2023/05/30 04:19:18;;;;;;;7.50;3.28;;;11.40;85.90;;;;;;2055050;28;20213;-72
2023/05/30 04:20:19;;;;;;;5.63;2.80;;;11.40;84.60;;;;;;2053997;28;20222;-72
2023/05/30 04:21:20;;;;;;;5.80;3.33;;;11.60;84.30;;;;;;2066448;28;20248;-72
2023/05/30 04:22:24;;;;;;;4.33;3.00;;;11.70;84.10;;;;;;2056405;28;20591;-72
2023/05/30 04:23:25;;;;;;;6.93;2.88;;;11.70;83.50;;;;;;2059657;28;20268;-71
2023/05/30 04:24:25;;;;;;;4.93;3.00;;;11.70;82.90;;;;;;2064993;28;20237;-71
2023/05/30 04:25:26;;;;;;;5.83;2.93;;;11.70;83.20;;;;;;2066905;28;20243;-71
2023/05/30 04:26:27;;;;;;;5.73;3.10;;;11.80;83.10;;;;;;2051158;28;20227;-71
2023/05/30 04:27:28;;;;;;;5.87;3.07;;;11.80;82.60;;;;;;2031912;29;20870;-71
2023/05/30 04:28:28;;;;;;;6.10;3.43;;;11.80;82.70;;;;;;2049091;28;20227;-71
2023/05/30 04:29:29;;;;;;;5.77;3.07;;;11.80;82.30;;;;;;2062734;28;20222;-72
2023/05/30 04:30:30;;;;;;;3.95;2.92;;;11.90;82.20;;;;;;2063366;28;20226;-72
2023/05/30 04:31:32;;;;;;;9.00;3.33;;;11.90;82.20;;;;;;2062084;28;20662;-72
2023/05/30 04:32:33;;;;;;;6.57;3.28;;;11.90;82.10;;;;;;2057118;28;20222;-72
2023/05/30 04:33:37;;;;;;;5.18;3.30;;;12.00;82.20;;;;;;2054754;28;20238;-71
2023/05/30 04:34:39;;;;;;;6.45;3.33;;;12.10;81.80;;;;;;2051024;28;20238;-72
2023/05/30 04:35:41;;;;;;;7.82;3.60;;;12.00;81.50;;;;;;2067774;28;20240;-70
2023/05/30 04:36:44;;;;;;;4.55;2.90;;;11.80;82.60;;;;;;2062037;28;20398;-71
2023/05/30 04:37:45;;;;;;;5.28;3.30;;;11.90;82.40;;;;;;2063043;28;20605;-70
2023/05/30 04:38:49;;;;;;;6.60;3.10;;;11.80;82.20;;;;;;2058879;28;20331;-71
2023/05/30 04:39:50;;;;;;;4.30;3.20;;;11.90;82.70;;;;;;2063563;28;20250;-71
2023/05/30 04:40:51;;;;;;;4.85;3.13;;;12.00;82.40;;;;;;2070418;28;20222;-72
2023/05/30 04:41:54;;;;;;;3.90;3.30;;;12.10;81.80;;;;;;2070738;28;20225;-70
2023/05/30 04:42:55;;;;;;;3.53;2.97;;;12.10;81.00;;;;;;2068957;28;20467;-71
2023/05/30 04:43:59;;;;;;;4.83;3.00;;;12.10;80.80;;;;;;2066752;28;20213;-72
2023/05/30 04:45:04;;;;;;;5.68;3.10;;;12.20;80.70;;;;;;2067664;28;20490;-73
2023/05/30 04:46:05;;;;;;;4.25;3.03;;;12.30;81.20;;;;;;2066469;28;20202;-72
2023/05/30 04:47:10;;;;;;;4.30;3.23;;;12.30;81.50;;;;;;2062224;28;20189;-72
2023/05/30 04:48:11;;;;;;;5.43;3.00;;;12.40;80.40;;;;;;2058170;28;20271;-72
2023/05/30 04:49:15;;;;;;;7.30;4.17;;;12.40;80.10;;;;;;2055618;28;20986;-72
2023/05/30 04:50:16;;;;;;;4.93;3.45;;;12.40;80.20;;;;;;2060901;28;20677;-71
2023/05/30 04:51:19;;;;;;;5.13;3.20;;;12.30;81.30;;;;;;2055435;28;20199;-72
2023/05/30 04:52:21;;;;;;;6.70;3.40;;;12.40;80.20;;;;;;2056225;28;20305;-72
2023/05/30 04:53:23;;;;;;;3.72;3.00;;;12.40;80.60;;;;;;2065467;28;20249;-72
2023/05/30 04:54:27;;;;;;;7.10;3.53;;;12.30;80.10;;;;;;2064531;28;20317;-72
2023/05/30 04:55:28;;;;;;;4.57;2.90;;;12.40;80.40;;;;;;2041541;28;20274;-71
2023/05/30 04:56:29;;;;;;;5.30;3.55;;;12.50;80.20;;;;;;2057361;28;20230;-72
2023/05/30 04:57:31;;;;;;;7.67;3.20;;;12.40;80.50;;;;;;2065186;28;20248;-72
2023/05/30 04:58:32;;;;;;;3.47;2.63;;;12.20;80.70;;;;;;2057568;28;20620;-72
2023/05/30 04:59:33;;;;;;;4.47;3.38;;;12.20;81.10;;;;;;2061461;28;20658;-72
2023/05/30 05:00:36;;;;;;;4.72;2.92;;;12.20;81.10;;;;;;2061438;28;20325;-72
2023/05/30 05:01:37;;;;;;;4.78;3.78;;;12.20;82.30;;;;;;2060936;28;20250;-74
2023/05/30 05:02:38;;;;;;;5.90;3.40;;;12.30;81.30;;;;;;2057728;28;20824;-72
2023/05/30 05:03:40;;;;;;;6.63;3.20;;;12.40;80.90;;;;;;2057752;28;20234;-72
2023/05/30 05:04:41;;;;;;;4.03;2.60;;;12.20;81.20;;;;;;2058893;28;20263;-72
2023/05/30 05:05:41;;;;;;;5.00;2.93;;;12.30;81.60;;;;;;2052869;28;20322;-72
2023/05/30 05:06:42;;;;;;;6.20;2.90;;;12.30;81.80;;;;;;2048968;28;20294;-72
2023/05/30 05:07:43;;;;;;;5.00;3.30;;;12.20;81.60;;;;;;2064250;28;20260;-72
2023/05/30 05:08:44;;;;;;;5.88;3.53;;;12.20;82.70;;;;;;2061744;28;20300;-72
2023/05/30 05:09:45;;;;;;;6.87;3.03;;;12.20;81.90;;;;;;2060839;28;20767;-71
2023/05/30 05:10:47;;;;;;;6.27;3.17;;;12.10;83.30;;;;;;2059089;28;20230;-72
2023/05/30 05:11:48;;;;;;;5.82;3.35;;;12.10;83.20;;;;;;2055479;28;20616;-72
2023/05/30 05:12:49;;;;;;;6.28;3.50;;;12.20;82.50;;;;;;2053135;28;20338;-71
2023/05/30 05:13:50;;;;;;;6.93;3.30;;;12.30;81.90;;;;;;2053508;28;20305;-71
2023/05/30 05:14:53;;;;;;;3.80;2.50;;;12.30;82.00;;;;;;2049607;28;20286;-72
2023/05/30 05:15:55;;;;;;;5.35;2.60;;;12.20;82.50;;;;;;2043609;28;21062;-71
2023/05/30 05:16:57;;;;;;;10.05;3.58;;;12.30;82.60;;;;;;2056926;28;20245;-72
2023/05/30 05:17:58;;;;;;;5.38;3.20;;;12.40;84.90;;;;;;2060574;28;20329;-72
2023/05/30 05:18:59;;;;;;;4.10;2.90;;;12.30;84.00;;;;;;2062178;28;20214;-72
2023/05/30 05:20:00;;;;;;;3.65;2.92;;;12.30;83.60;;;;;;2054462;28;20218;-73
2023/05/30 05:21:01;;;;;;;4.53;3.13;;;12.40;83.10;;;;;;2056757;28;20211;-72
2023/05/30 05:22:05;;;;;;;7.03;3.40;;;12.40;83.70;;;;;;2064096;28;20237;-74
2023/05/30 05:23:06;;;;;;;6.20;2.50;;;12.40;84.00;;;;;;2045558;28;20180;-72
2023/05/30 05:24:09;;;;;;;4.82;3.33;;;12.50;82.60;;;;;;2046837;28;20191;-72
2023/05/30 05:25:10;;;;;;;5.15;3.03;;;12.50;81.60;;;;;;2063236;28;20190;-71
2023/05/30 05:26:11;;;;;;;5.57;3.20;;;12.50;81.60;;;;;;2055981;28;20191;-72
2023/05/30 05:27:12;;;;;;;7.10;3.57;;;12.50;81.40;;;;;;2059426;28;20183;-72
2023/05/30 05:28:13;;;;;;;7.47;3.63;;;12.60;81.30;;;;;;2060578;28;20194;-74